createdAt,value
2023-05-22T00:00:14.128Z,99.72
2023-05-22T00:02:43.664Z,98.73
2023-05-22T00:05:12.934Z,99.25
2023-05-22T00:07:42.022Z,99.30
2023-05-22T00:10:11.012Z,100.00
2023-05-22T00:12:39.139Z,100.00
2023-05-22T00:15:09.783Z,100.00
2023-05-22T00:17:37.782Z,99.88
2023-05-22T00:20:07.946Z,98.78
2023-05-22T00:22:36.493Z,98.03
2023-05-22T00:25:04.752Z,98.33
2023-05-22T00:27:32.721Z,97.66
2023-05-22T00:30:01.412Z,99.78
2023-05-22T00:32:31.128Z,97.76
2023-05-22T00:34:59.104Z,98.34
2023-05-22T00:37:27.368Z,99.56
2023-05-22T00:39:55.400Z,100.00
2023-05-22T00:42:24.040Z,100.00
2023-05-22T00:44:54.937Z,100.00
2023-05-22T00:47:23.871Z,100.00
2023-05-22T00:49:53.805Z,100.00
2023-05-22T00:52:24.029Z,100.00
2023-05-22T00:54:54.776Z,100.00
2023-05-22T00:57:24.611Z,100.00
2023-05-22T00:59:52.991Z,100.00
2023-05-22T01:02:21.643Z,100.00
2023-05-22T01:04:50.097Z,100.00
2023-05-22T01:07:19.469Z,100.00
2023-05-22T01:09:47.410Z,100.00
2023-05-22T01:12:22.055Z,100.00
2023-05-22T01:15:00.745Z,100.00
2023-05-22T01:17:37.477Z,100.00
2023-05-22T01:20:14.460Z,100.00
2023-05-22T01:23:12.040Z,100.00
2023-05-22T01:26:06.072Z,100.00
2023-05-22T01:28:58.829Z,100.00
2023-05-22T01:31:31.056Z,100.00
2023-05-22T01:34:01.789Z,100.00
2023-05-22T01:36:35.049Z,100.00
2023-05-22T01:39:06.593Z,100.00
2023-05-22T01:41:35.586Z,100.00
2023-05-22T01:44:03.928Z,100.00
2023-05-22T01:46:33.806Z,100.00
2023-05-22T01:49:01.763Z,100.00
2023-05-22T01:51:49.702Z,100.00
2023-05-22T01:54:24.356Z,100.00
2023-05-22T01:56:57.039Z,100.00
2023-05-22T01:59:31.524Z,100.00
2023-05-22T02:02:06.200Z,100.00
2023-05-22T02:04:38.290Z,100.00
2023-05-22T02:07:07.742Z,100.00
2023-05-22T02:09:37.058Z,100.00
2023-05-22T02:12:05.840Z,100.00
2023-05-22T02:14:34.747Z,100.00
2023-05-22T02:17:06.769Z,100.00
2023-05-22T02:19:35.916Z,100.00
2023-05-22T02:22:04.456Z,100.00
2023-05-22T02:24:33.329Z,100.00
2023-05-22T02:27:01.601Z,100.00
2023-05-22T02:29:29.547Z,100.00
2023-05-22T02:31:57.451Z,100.00
2023-05-22T02:34:27.041Z,100.00
2023-05-22T02:36:56.375Z,100.00
2023-05-22T02:39:24.316Z,100.00
2023-05-22T02:41:52.331Z,100.00
2023-05-22T02:44:20.270Z,100.00
2023-05-22T02:46:48.595Z,100.00
2023-05-22T02:49:16.747Z,100.00
2023-05-22T02:51:47.893Z,100.00
2023-05-22T02:54:16.721Z,100.00
2023-05-22T02:56:44.917Z,100.00
2023-05-22T02:59:12.936Z,100.00
2023-05-22T03:01:40.879Z,100.00
2023-05-22T03:04:09.115Z,100.00
2023-05-22T03:06:38.377Z,100.00
2023-05-22T03:09:08.694Z,100.00
2023-05-22T03:11:36.396Z,100.00
2023-05-22T03:14:04.580Z,100.00
2023-05-22T03:16:32.942Z,100.00
2023-05-22T03:19:10.488Z,100.00
2023-05-22T03:21:38.840Z,100.00
2023-05-22T03:24:09.297Z,100.00
2023-05-22T03:26:37.424Z,100.00
2023-05-22T03:29:05.387Z,100.00
2023-05-22T03:31:34.446Z,100.00
2023-05-22T03:34:03.122Z,100.00
2023-05-22T03:36:34.104Z,100.00
2023-05-22T03:39:02.146Z,100.00
2023-05-22T03:41:31.377Z,100.00
2023-05-22T03:43:59.419Z,100.00
2023-05-22T03:46:27.754Z,100.00
2023-05-22T03:48:55.767Z,100.00
2023-05-22T03:51:23.741Z,100.00
2023-05-22T03:53:51.741Z,100.00
2023-05-22T03:56:19.704Z,100.00
2023-05-22T03:58:50.174Z,100.00
2023-05-22T04:01:19.175Z,100.00
2023-05-22T04:03:47.514Z,100.00
2023-05-22T04:06:15.450Z,100.00
2023-05-22T04:08:43.384Z,100.00
2023-05-22T04:11:11.328Z,100.00
2023-05-22T04:13:39.311Z,100.00
2023-05-22T04:16:08.825Z,100.00
2023-05-22T04:18:36.810Z,100.00
2023-05-22T04:21:08.154Z,100.00
2023-05-22T04:23:36.194Z,100.00
2023-05-22T04:26:04.107Z,100.00
2023-05-22T04:28:32.652Z,100.00
2023-05-22T04:31:01.104Z,100.00
2023-05-22T04:33:34.361Z,100.00
2023-05-22T04:36:02.996Z,100.00
2023-05-22T04:38:31.066Z,100.00
2023-05-22T04:41:00.426Z,100.00
2023-05-22T04:43:29.910Z,100.00
2023-05-22T04:45:58.168Z,100.00
2023-05-22T04:48:26.191Z,100.00
2023-05-22T04:50:57.507Z,100.00
2023-05-22T04:53:27.537Z,100.00
2023-05-22T04:55:55.822Z,100.00
2023-05-22T04:58:24.189Z,100.00
2023-05-22T05:00:52.694Z,100.00
2023-05-22T05:03:21.146Z,100.00
2023-05-22T05:05:49.091Z,100.00
2023-05-22T05:08:18.513Z,100.00
2023-05-22T05:10:46.485Z,100.00
2023-05-22T05:13:14.476Z,100.00
2023-05-22T05:15:42.431Z,100.00
2023-05-22T05:18:10.340Z,100.00
2023-05-22T05:20:38.592Z,100.00
2023-05-22T05:23:06.866Z,100.00
2023-05-22T05:25:38.548Z,100.00
2023-05-22T05:28:10.804Z,100.00
2023-05-22T05:30:39.437Z,100.00
2023-05-22T05:33:07.712Z,100.00
2023-05-22T05:35:35.877Z,100.00
2023-05-22T05:38:03.990Z,100.00
2023-05-22T05:40:31.927Z,100.00
2023-05-22T05:43:01.245Z,99.63
2023-05-22T05:45:29.638Z,97.80
2023-05-22T05:47:57.631Z,96.41
2023-05-22T05:50:25.723Z,96.28
2023-05-22T05:52:53.679Z,96.07
2023-05-22T05:55:21.751Z,95.31
2023-05-22T05:57:49.751Z,94.20
2023-05-22T06:00:19.933Z,92.55
2023-05-22T06:02:50.731Z,91.19
2023-05-22T06:05:19.464Z,90.41
2023-05-22T06:07:48.329Z,89.31
2023-05-22T06:10:16.593Z,89.25
2023-05-22T06:12:44.574Z,89.63
2023-05-22T06:15:13.198Z,90.24
2023-05-22T06:17:42.989Z,88.25
2023-05-22T06:20:11.854Z,86.18
2023-05-22T06:22:39.852Z,84.52
2023-05-22T06:25:09.334Z,83.24
2023-05-22T06:27:37.391Z,82.55
2023-05-22T06:30:06.100Z,81.38
2023-05-22T06:32:34.153Z,79.75
2023-05-22T06:35:03.554Z,80.37
2023-05-22T06:37:33.081Z,80.20
2023-05-22T06:40:01.166Z,78.92
2023-05-22T06:42:29.083Z,77.13
2023-05-22T06:44:56.928Z,76.67
2023-05-22T06:47:24.882Z,75.05
2023-05-22T06:49:52.757Z,74.58
2023-05-22T06:52:22.046Z,73.99
2023-05-22T06:54:49.960Z,73.22
2023-05-22T06:57:17.939Z,72.82
2023-05-22T06:59:45.849Z,72.38
2023-05-22T07:02:13.777Z,71.41
2023-05-22T07:04:41.736Z,70.94
2023-05-22T07:07:10.268Z,70.44
2023-05-22T07:09:39.663Z,69.17
2023-05-22T07:12:08.830Z,70.75
2023-05-22T07:14:36.853Z,70.17
2023-05-22T07:17:04.940Z,70.53
2023-05-22T07:19:32.902Z,72.23
2023-05-22T07:22:00.950Z,71.37
2023-05-22T07:24:29.040Z,70.78
2023-05-22T07:26:58.398Z,69.74
2023-05-22T07:29:26.418Z,72.07
2023-05-22T07:31:54.342Z,70.21
2023-05-22T07:34:22.395Z,70.35
2023-05-22T07:36:50.276Z,70.92
2023-05-22T07:39:18.150Z,68.67
2023-05-22T07:41:50.584Z,65.92
2023-05-22T07:44:19.889Z,68.01
2023-05-22T07:46:47.980Z,66.43
2023-05-22T07:49:19.591Z,68.81
2023-05-22T07:51:47.932Z,68.82
2023-05-22T07:54:15.998Z,68.28
2023-05-22T07:56:43.983Z,69.61
2023-05-22T07:59:12.115Z,68.56
2023-05-22T08:01:42.620Z,68.22
2023-05-22T08:04:11.112Z,68.28
2023-05-22T08:06:39.913Z,68.76
2023-05-22T08:09:07.860Z,67.71
2023-05-22T08:11:39.047Z,68.30
2023-05-22T08:14:07.863Z,68.09
2023-05-22T08:16:35.937Z,66.00
2023-05-22T08:19:08.021Z,65.64
2023-05-22T08:21:37.571Z,66.16
2023-05-22T08:24:05.876Z,65.64
2023-05-22T08:26:34.005Z,65.67
2023-05-22T08:29:02.623Z,67.97
2023-05-22T08:31:31.019Z,66.50
2023-05-22T08:34:02.604Z,64.43
2023-05-22T08:36:33.946Z,64.27
2023-05-22T08:39:02.388Z,64.88
2023-05-22T08:41:31.035Z,65.88
2023-05-22T08:43:58.992Z,64.88
2023-05-22T08:46:28.365Z,65.79
2023-05-22T08:48:58.537Z,64.52
2023-05-22T08:51:31.545Z,64.60
2023-05-22T08:54:02.721Z,64.03
2023-05-22T08:56:33.541Z,63.95
2023-05-22T08:59:04.778Z,63.81
2023-05-22T09:01:34.298Z,64.95
2023-05-22T09:04:04.249Z,64.44
2023-05-22T09:06:32.582Z,64.95
2023-05-22T09:09:03.333Z,63.01
2023-05-22T09:11:31.405Z,63.60
2023-05-22T09:14:08.558Z,62.13
2023-05-22T09:16:46.163Z,63.71
2023-05-22T09:19:15.067Z,63.20
2023-05-22T09:21:44.471Z,63.36
2023-05-22T09:24:14.126Z,63.61
2023-05-22T09:26:43.593Z,64.32
2023-05-22T09:29:11.553Z,63.78
2023-05-22T09:31:44.156Z,63.25
2023-05-22T09:34:14.819Z,64.68
2023-05-22T09:36:42.938Z,63.53
2023-05-22T09:39:10.977Z,64.85
2023-05-22T09:41:41.218Z,62.14
2023-05-22T09:44:14.221Z,62.14
2023-05-22T09:46:43.316Z,63.14
2023-05-22T09:49:14.189Z,63.07
2023-05-22T09:51:48.054Z,63.15
2023-05-22T09:54:19.548Z,63.95
2023-05-22T09:56:51.345Z,65.01
2023-05-22T09:59:23.617Z,63.49
2023-05-22T10:01:52.076Z,62.71
2023-05-22T10:04:22.979Z,63.76
2023-05-22T10:06:53.131Z,63.15
2023-05-22T10:09:25.076Z,62.88
2023-05-22T10:11:56.898Z,61.59
2023-05-22T10:14:25.636Z,63.17
2023-05-22T10:16:56.767Z,62.55
2023-05-22T10:19:27.902Z,60.25
2023-05-22T10:21:58.395Z,60.85
2023-05-22T10:24:26.267Z,60.98
2023-05-22T10:26:56.209Z,65.18
2023-05-22T10:29:30.642Z,63.21
2023-05-22T10:32:05.840Z,61.46
2023-05-22T10:34:41.601Z,61.78
2023-05-22T10:37:22.984Z,62.17
2023-05-22T10:40:01.989Z,61.51
2023-05-22T10:42:32.763Z,61.58
2023-05-22T10:45:02.242Z,61.84
2023-05-22T10:47:30.303Z,61.02
2023-05-22T10:50:08.313Z,59.68
2023-05-22T10:52:36.472Z,61.53
2023-05-22T10:55:08.647Z,60.72
2023-05-22T10:57:39.213Z,62.34
2023-05-22T11:00:09.623Z,61.40
2023-05-22T11:02:43.308Z,63.37
2023-05-22T11:05:35.275Z,60.14
2023-05-22T11:08:47.830Z,57.34
2023-05-22T11:11:15.828Z,60.85
2023-05-22T11:13:45.268Z,61.19
2023-05-22T11:16:13.745Z,59.84
2023-05-22T11:18:41.706Z,59.08
2023-05-22T11:21:13.714Z,58.58
2023-05-22T11:23:42.922Z,59.26
2023-05-22T11:26:22.649Z,59.55
2023-05-22T11:28:53.655Z,60.34
2023-05-22T11:31:24.066Z,60.90
2023-05-22T11:33:51.927Z,61.34
2023-05-22T11:36:20.129Z,60.89
2023-05-22T11:38:48.072Z,61.72
2023-05-22T11:41:17.207Z,61.14
2023-05-22T11:43:45.349Z,61.16
2023-05-22T11:46:15.325Z,59.45
2023-05-22T11:48:43.705Z,58.77
2023-05-22T11:51:11.676Z,58.19
2023-05-22T11:53:39.870Z,59.62
2023-05-22T11:56:08.315Z,59.54
2023-05-22T11:58:36.158Z,61.17
2023-05-22T12:01:05.264Z,59.28
2023-05-22T12:03:34.862Z,60.12
2023-05-22T12:06:03.268Z,58.44
2023-05-22T12:08:31.479Z,58.21
2023-05-22T12:10:59.613Z,58.62
2023-05-22T12:13:29.081Z,59.41
2023-05-22T12:16:00.493Z,57.77
2023-05-22T12:18:28.710Z,59.83
2023-05-22T12:20:57.971Z,60.29
2023-05-22T12:23:26.994Z,58.73
2023-05-22T12:25:59.550Z,56.10
2023-05-22T12:28:27.826Z,55.97
2023-05-22T12:30:57.072Z,57.40
2023-05-22T12:33:29.184Z,58.79
2023-05-22T12:35:59.533Z,58.38
2023-05-22T12:38:27.929Z,61.10
2023-05-22T12:40:56.499Z,56.92
2023-05-22T12:43:26.426Z,56.64
2023-05-22T12:45:54.474Z,56.09
2023-05-22T12:48:22.958Z,56.61
2023-05-22T12:50:51.114Z,57.22
2023-05-22T12:53:20.839Z,57.20
2023-05-22T12:55:48.764Z,57.44
2023-05-22T12:58:16.675Z,57.31
2023-05-22T13:00:44.564Z,57.07
2023-05-22T13:03:13.207Z,55.81
2023-05-22T13:05:41.840Z,56.33
2023-05-22T13:08:10.137Z,55.45
2023-05-22T13:10:39.481Z,56.64
2023-05-22T13:13:07.454Z,57.77
2023-05-22T13:15:36.259Z,58.23
2023-05-22T13:18:04.450Z,57.63
2023-05-22T13:20:32.499Z,57.59
2023-05-22T13:23:00.441Z,57.39
2023-05-22T13:25:28.377Z,55.80
2023-05-22T13:27:57.702Z,55.68
2023-05-22T13:30:25.745Z,56.83
2023-05-22T13:32:53.772Z,56.54
2023-05-22T13:35:21.889Z,55.42
2023-05-22T13:37:49.989Z,55.58
2023-05-22T13:40:18.625Z,55.94
2023-05-22T13:42:46.770Z,56.99
2023-05-22T13:45:16.173Z,56.91
2023-05-22T13:47:44.173Z,56.33
2023-05-22T13:50:12.490Z,57.97
2023-05-22T13:52:40.897Z,55.90
2023-05-22T13:55:09.530Z,57.40
2023-05-22T13:57:40.563Z,55.87
2023-05-22T14:00:10.136Z,57.24
2023-05-22T14:02:39.447Z,57.16
2023-05-22T14:05:07.913Z,56.10
2023-05-22T14:07:35.814Z,56.98
2023-05-22T14:10:03.822Z,55.92
2023-05-22T14:12:31.736Z,57.13
2023-05-22T14:15:02.453Z,55.91
2023-05-22T14:17:30.474Z,55.74
2023-05-22T14:20:00.186Z,56.67
2023-05-22T14:22:28.275Z,56.56
2023-05-22T14:24:56.981Z,56.29
2023-05-22T14:27:24.918Z,56.58
2023-05-22T14:29:52.892Z,56.81
2023-05-22T14:32:21.613Z,56.60
2023-05-22T14:34:49.615Z,54.94
2023-05-22T14:37:19.828Z,55.60
2023-05-22T14:39:47.725Z,55.66
2023-05-22T14:42:15.798Z,54.98
2023-05-22T14:44:43.745Z,56.27
2023-05-22T14:47:11.732Z,54.62
2023-05-22T14:49:39.685Z,54.52
2023-05-22T14:52:07.614Z,55.50
2023-05-22T14:54:36.913Z,55.02
2023-05-22T14:57:05.116Z,55.64
2023-05-22T14:59:33.895Z,55.87
2023-05-22T15:02:01.881Z,55.44
2023-05-22T15:04:31.273Z,55.68
2023-05-22T15:06:59.257Z,55.67
2023-05-22T15:09:27.201Z,54.83
2023-05-22T15:11:56.562Z,55.51
2023-05-22T15:14:24.635Z,55.22
2023-05-22T15:16:52.652Z,55.83
2023-05-22T15:19:20.759Z,55.04
2023-05-22T15:21:48.882Z,55.42
2023-05-22T15:24:16.990Z,55.75
2023-05-22T15:26:44.974Z,55.16
2023-05-22T15:29:14.257Z,55.87
2023-05-22T15:31:45.034Z,55.77
2023-05-22T15:34:13.056Z,54.73
2023-05-22T15:36:41.201Z,54.39
2023-05-22T15:39:09.092Z,55.21
2023-05-22T15:41:37.001Z,54.19
2023-05-22T15:44:05.073Z,54.70
2023-05-22T15:46:34.450Z,56.62
2023-05-22T15:49:02.457Z,55.63
2023-05-22T15:51:31.068Z,56.12
2023-05-22T15:53:59.393Z,55.81
2023-05-22T15:56:27.251Z,56.21
2023-05-22T15:58:55.264Z,55.60
2023-05-22T16:01:23.136Z,55.27
2023-05-22T16:03:52.561Z,55.65
2023-05-22T16:06:22.933Z,56.22
2023-05-22T16:08:51.041Z,57.18
2023-05-22T16:11:19.022Z,55.07
2023-05-22T16:13:47.068Z,54.36
2023-05-22T16:16:16.445Z,53.53
2023-05-22T16:18:44.511Z,55.04
2023-05-22T16:21:13.971Z,54.82
2023-05-22T16:23:41.990Z,55.42
2023-05-22T16:26:09.946Z,56.56
2023-05-22T16:28:37.944Z,58.21
2023-05-22T16:31:06.185Z,57.68
2023-05-22T16:33:36.312Z,58.43
2023-05-22T16:36:04.327Z,56.99
2023-05-22T16:38:33.669Z,55.62
2023-05-22T16:41:01.599Z,56.90
2023-05-22T16:43:29.579Z,59.05
2023-05-22T16:45:57.695Z,59.05
2023-05-22T16:48:25.729Z,59.48
2023-05-22T16:50:53.820Z,60.50
2023-05-22T16:53:21.836Z,59.11
2023-05-22T16:55:51.315Z,60.10
2023-05-22T16:58:19.323Z,61.18
2023-05-22T17:00:47.542Z,61.50
2023-05-22T17:03:15.648Z,61.89
2023-05-22T17:05:44.589Z,62.02
2023-05-22T17:08:12.537Z,61.94
2023-05-22T17:10:41.673Z,62.11
2023-05-22T17:13:12.668Z,61.38
2023-05-22T17:15:40.844Z,62.19
2023-05-22T17:18:09.083Z,62.37
2023-05-22T17:20:37.100Z,61.84
2023-05-22T17:23:05.618Z,61.06
2023-05-22T17:25:33.464Z,59.90
2023-05-22T17:28:02.901Z,60.10
2023-05-22T17:30:33.267Z,61.90
2023-05-22T17:33:01.092Z,63.00
2023-05-22T17:35:28.976Z,60.53
2023-05-22T17:37:56.933Z,61.41
2023-05-22T17:40:36.587Z,61.40
2023-05-22T17:43:12.547Z,59.71
2023-05-22T17:45:42.177Z,61.29
2023-05-22T17:48:10.899Z,61.46
2023-05-22T17:50:39.876Z,60.80
2023-05-22T17:53:07.909Z,60.88
2023-05-22T17:55:36.157Z,60.26
2023-05-22T17:58:06.427Z,61.55
2023-05-22T18:00:34.460Z,60.39
2023-05-22T18:03:03.848Z,61.61
2023-05-22T18:05:31.827Z,60.06
2023-05-22T18:08:00.658Z,61.78
2023-05-22T18:10:28.659Z,61.41
2023-05-22T18:12:56.564Z,61.87
2023-05-22T18:15:24.956Z,61.35
2023-05-22T18:17:52.885Z,62.06
2023-05-22T18:20:22.465Z,62.13
2023-05-22T18:22:50.343Z,62.73
2023-05-22T18:25:18.515Z,62.19
2023-05-22T18:27:46.882Z,63.05
2023-05-22T18:30:15.687Z,63.52
2023-05-22T18:32:43.635Z,63.77
2023-05-22T18:35:14.278Z,63.41
2023-05-22T18:37:43.591Z,63.65
2023-05-22T18:40:12.544Z,63.72
2023-05-22T18:42:40.628Z,63.46
2023-05-22T18:45:11.306Z,63.91
2023-05-22T18:47:39.366Z,64.23
2023-05-22T18:50:08.539Z,63.80
2023-05-22T18:52:37.986Z,64.62
2023-05-22T18:55:09.244Z,66.02
2023-05-22T18:57:37.253Z,63.72
2023-05-22T19:00:07.070Z,64.35
2023-05-22T19:02:35.105Z,65.14
2023-05-22T19:05:03.821Z,64.33
2023-05-22T19:07:31.975Z,64.17
2023-05-22T19:10:00.079Z,64.69
2023-05-22T19:12:31.740Z,64.33
2023-05-22T19:15:00.035Z,64.32
2023-05-22T19:17:28.068Z,63.35
2023-05-22T19:19:56.084Z,62.94
2023-05-22T19:22:24.365Z,63.24
2023-05-22T19:24:52.432Z,63.56
2023-05-22T19:27:20.554Z,63.22
2023-05-22T19:29:49.994Z,64.18
2023-05-22T19:32:17.985Z,63.28
2023-05-22T19:34:46.558Z,63.69
2023-05-22T19:37:14.476Z,63.64
2023-05-22T19:39:42.465Z,64.10
2023-05-22T19:42:11.405Z,63.84
2023-05-22T19:44:39.411Z,64.29
2023-05-22T19:47:09.105Z,64.46
2023-05-22T19:49:37.391Z,64.14
2023-05-22T19:52:06.111Z,63.69
2023-05-22T19:54:34.112Z,63.90
2023-05-22T19:57:02.178Z,63.52
2023-05-22T19:59:30.203Z,64.25
2023-05-22T20:01:58.238Z,64.24
2023-05-22T20:04:27.494Z,64.18
2023-05-22T20:06:58.687Z,64.11
2023-05-22T20:09:26.967Z,63.91
2023-05-22T20:11:54.972Z,63.86
2023-05-22T20:14:23.239Z,63.24
2023-05-22T20:16:51.466Z,63.83
2023-05-22T20:19:19.753Z,63.87
2023-05-22T20:21:50.075Z,63.80
2023-05-22T20:24:21.001Z,63.94
2023-05-22T20:26:49.198Z,64.28
2023-05-22T20:29:17.189Z,65.90
2023-05-22T20:31:45.302Z,66.62
2023-05-22T20:34:13.246Z,67.62
2023-05-22T20:36:42.630Z,68.34
2023-05-22T20:39:12.075Z,67.94
2023-05-22T20:41:40.282Z,68.29
2023-05-22T20:44:08.455Z,69.11
2023-05-22T20:46:36.419Z,69.38
2023-05-22T20:49:05.182Z,69.43
2023-05-22T20:51:33.560Z,69.24
2023-05-22T20:54:02.319Z,69.96
2023-05-22T20:56:31.658Z,68.53
2023-05-22T20:58:59.570Z,68.88
2023-05-22T21:01:27.463Z,70.07
2023-05-22T21:03:56.499Z,70.88
2023-05-22T21:06:25.073Z,69.60
2023-05-22T21:08:54.265Z,70.45
2023-05-22T21:11:22.269Z,71.14
2023-05-22T21:13:51.535Z,71.37
2023-05-22T21:16:19.444Z,69.83
2023-05-22T21:18:47.379Z,69.70
2023-05-22T21:21:15.668Z,69.55
2023-05-22T21:23:44.372Z,69.94
2023-05-22T21:26:12.453Z,69.41
2023-05-22T21:28:43.810Z,69.41
2023-05-22T21:31:13.078Z,68.97
2023-05-22T21:33:41.057Z,68.66
2023-05-22T21:36:09.206Z,68.59
2023-05-22T21:38:37.137Z,68.10
2023-05-22T21:41:05.228Z,68.15
2023-05-22T21:43:33.209Z,67.80
2023-05-22T21:46:01.174Z,67.54
2023-05-22T21:48:30.528Z,67.75
2023-05-22T21:50:58.484Z,68.29
2023-05-22T21:53:26.652Z,68.66
2023-05-22T21:55:54.622Z,67.94
2023-05-22T21:58:22.602Z,68.09
2023-05-22T22:00:50.976Z,67.41
2023-05-22T22:03:19.161Z,68.18
2023-05-22T22:05:48.665Z,68.11
2023-05-22T22:08:16.527Z,68.97
2023-05-22T22:10:44.622Z,68.42
2023-05-22T22:13:12.532Z,69.10
2023-05-22T22:15:40.495Z,68.69
2023-05-22T22:18:08.430Z,70.25
2023-05-22T22:20:44.384Z,69.17
2023-05-22T22:23:15.225Z,70.31
2023-05-22T22:25:43.224Z,70.44
2023-05-22T22:28:11.422Z,69.78
2023-05-22T22:30:39.746Z,70.46
2023-05-22T22:33:08.143Z,69.68
2023-05-22T22:35:36.209Z,70.50
2023-05-22T22:38:04.204Z,72.07
2023-05-22T22:40:33.590Z,71.83
2023-05-22T22:43:01.481Z,71.49
2023-05-22T22:45:29.414Z,72.44
2023-05-22T22:47:57.519Z,73.76
2023-05-22T22:50:25.589Z,72.66
2023-05-22T22:52:53.473Z,72.88
2023-05-22T22:55:21.649Z,73.11
2023-05-22T22:57:51.604Z,73.53
2023-05-22T23:00:20.219Z,74.61
2023-05-22T23:02:48.269Z,73.59
2023-05-22T23:05:20.026Z,74.95
2023-05-22T23:07:48.580Z,75.21
2023-05-22T23:10:16.849Z,74.75
2023-05-22T23:12:44.947Z,74.37
2023-05-22T23:15:14.692Z,75.50
2023-05-22T23:17:43.063Z,75.26
2023-05-22T23:20:12.442Z,74.95
2023-05-22T23:22:40.327Z,75.64
2023-05-22T23:25:08.958Z,74.61
2023-05-22T23:27:37.526Z,74.46
2023-05-22T23:30:06.316Z,75.86
2023-05-22T23:32:35.737Z,76.87
2023-05-22T23:35:05.357Z,76.87
2023-05-22T23:37:33.315Z,77.24
2023-05-22T23:40:01.294Z,77.03
2023-05-22T23:42:29.271Z,78.57
2023-05-22T23:44:57.160Z,79.04
2023-05-22T23:47:25.099Z,78.44
2023-05-22T23:49:56.657Z,79.36
2023-05-22T23:52:24.611Z,80.61
2023-05-22T23:54:52.549Z,79.84
2023-05-22T23:57:20.461Z,79.31
2023-05-22T23:59:48.350Z,80.04
